sensor_id;sensor_type;location;lat;lon;timestamp;temperature;humidity
78696;SHT31;68030;51.980;5.646;2023-12-14T00:00:06;10.2;67.8
78696;SHT31;68030;51.980;5.646;2023-12-14T00:02:36;10.2;67.8
78696;SHT31;68030;51.980;5.646;2023-12-14T00:05:05;10.2;67.8
78696;SHT31;68030;51.980;5.646;2023-12-14T00:07:34;10.1;67.9
78696;SHT31;68030;51.980;5.646;2023-12-14T00:10:03;10.1;68.0
78696;SHT31;68030;51.980;5.646;2023-12-14T00:12:32;10.1;68.3
78696;SHT31;68030;51.980;5.646;2023-12-14T00:15:00;10.0;68.4
78696;SHT31;68030;51.980;5.646;2023-12-14T00:17:29;10.0;68.5
78696;SHT31;68030;51.980;5.646;2023-12-14T00:19:58;10.0;68.5
78696;SHT31;68030;51.980;5.646;2023-12-14T00:22:26;9.9;68.6
78696;SHT31;68030;51.980;5.646;2023-12-14T00:24:54;9.9;68.6
78696;SHT31;68030;51.980;5.646;2023-12-14T00:27:23;9.8;68.8
78696;SHT31;68030;51.980;5.646;2023-12-14T00:29:51;9.8;69.1
78696;SHT31;68030;51.980;5.646;2023-12-14T00:32:20;9.8;69.3
78696;SHT31;68030;51.980;5.646;2023-12-14T00:34:48;9.8;69.5
78696;SHT31;68030;51.980;5.646;2023-12-14T00:37:18;9.7;69.4
78696;SHT31;68030;51.980;5.646;2023-12-14T00:39:47;9.7;69.1
78696;SHT31;68030;51.980;5.646;2023-12-14T00:42:16;9.7;69.1
78696;SHT31;68030;51.980;5.646;2023-12-14T00:44:44;9.7;68.9
78696;SHT31;68030;51.980;5.646;2023-12-14T00:47:13;9.7;69.0
78696;SHT31;68030;51.980;5.646;2023-12-14T00:49:41;9.6;69.0
78696;SHT31;68030;51.980;5.646;2023-12-14T00:52:10;9.6;69.0
78696;SHT31;68030;51.980;5.646;2023-12-14T00:54:38;9.6;69.0
78696;SHT31;68030;51.980;5.646;2023-12-14T00:57:07;9.6;69.1
78696;SHT31;68030;51.980;5.646;2023-12-14T00:59:35;9.6;68.5
78696;SHT31;68030;51.980;5.646;2023-12-14T01:02:04;9.5;68.2
78696;SHT31;68030;51.980;5.646;2023-12-14T01:04:32;9.5;68.1
78696;SHT31;68030;51.980;5.646;2023-12-14T01:07:01;9.5;68.1
78696;SHT31;68030;51.980;5.646;2023-12-14T01:09:30;9.5;68.0
78696;SHT31;68030;51.980;5.646;2023-12-14T01:11:59;9.4;68.1
78696;SHT31;68030;51.980;5.646;2023-12-14T01:14:27;9.4;68.3
78696;SHT31;68030;51.980;5.646;2023-12-14T01:16:58;9.4;68.4
78696;SHT31;68030;51.980;5.646;2023-12-14T01:19:26;9.4;68.3
78696;SHT31;68030;51.980;5.646;2023-12-14T01:21:55;9.4;68.6
78696;SHT31;68030;51.980;5.646;2023-12-14T01:24:23;9.4;68.4
78696;SHT31;68030;51.980;5.646;2023-12-14T01:26:51;9.4;68.6
78696;SHT31;68030;51.980;5.646;2023-12-14T01:29:20;9.4;68.2
78696;SHT31;68030;51.980;5.646;2023-12-14T01:31:48;9.4;67.8
78696;SHT31;68030;51.980;5.646;2023-12-14T01:34:17;9.4;67.7
78696;SHT31;68030;51.980;5.646;2023-12-14T01:36:45;9.4;67.8
78696;SHT31;68030;51.980;5.646;2023-12-14T01:39:14;9.4;67.7
78696;SHT31;68030;51.980;5.646;2023-12-14T01:41:42;9.4;67.6
78696;SHT31;68030;51.980;5.646;2023-12-14T01:44:11;9.4;67.6
78696;SHT31;68030;51.980;5.646;2023-12-14T01:46:39;9.4;67.4
78696;SHT31;68030;51.980;5.646;2023-12-14T01:49:08;9.4;67.3
78696;SHT31;68030;51.980;5.646;2023-12-14T01:51:36;9.4;67.6
78696;SHT31;68030;51.980;5.646;2023-12-14T01:54:05;9.3;67.6
78696;SHT31;68030;51.980;5.646;2023-12-14T01:56:34;9.3;67.8
78696;SHT31;68030;51.980;5.646;2023-12-14T01:59:02;9.3;67.6
78696;SHT31;68030;51.980;5.646;2023-12-14T02:01:38;9.3;67.7
78696;SHT31;68030;51.980;5.646;2023-12-14T02:04:08;9.3;67.8
78696;SHT31;68030;51.980;5.646;2023-12-14T02:06:37;9.3;67.8
78696;SHT31;68030;51.980;5.646;2023-12-14T02:09:06;9.3;67.7
78696;SHT31;68030;51.980;5.646;2023-12-14T02:11:35;9.3;67.2
78696;SHT31;68030;51.980;5.646;2023-12-14T02:14:09;9.3;67.6
78696;SHT31;68030;51.980;5.646;2023-12-14T02:16:37;9.3;67.8
78696;SHT31;68030;51.980;5.646;2023-12-14T02:19:07;9.3;67.1
78696;SHT31;68030;51.980;5.646;2023-12-14T02:21:37;9.3;66.9
78696;SHT31;68030;51.980;5.646;2023-12-14T02:24:08;9.3;67.0
78696;SHT31;68030;51.980;5.646;2023-12-14T02:26:36;9.4;66.8
78696;SHT31;68030;51.980;5.646;2023-12-14T02:29:05;9.4;67.1
78696;SHT31;68030;51.980;5.646;2023-12-14T02:31:33;9.4;66.6
78696;SHT31;68030;51.980;5.646;2023-12-14T02:34:02;9.4;66.7
78696;SHT31;68030;51.980;5.646;2023-12-14T02:36:30;9.4;66.5
78696;SHT31;68030;51.980;5.646;2023-12-14T02:38:59;9.4;66.4
78696;SHT31;68030;51.980;5.646;2023-12-14T02:41:27;9.4;66.8
78696;SHT31;68030;51.980;5.646;2023-12-14T02:43:55;9.4;66.6
78696;SHT31;68030;51.980;5.646;2023-12-14T02:46:24;9.4;66.3
78696;SHT31;68030;51.980;5.646;2023-12-14T02:48:52;9.4;66.2
78696;SHT31;68030;51.980;5.646;2023-12-14T02:51:21;9.4;66.3
78696;SHT31;68030;51.980;5.646;2023-12-14T02:53:49;9.4;66.2
78696;SHT31;68030;51.980;5.646;2023-12-14T02:56:18;9.4;66.1
78696;SHT31;68030;51.980;5.646;2023-12-14T02:58:48;9.4;66.3
78696;SHT31;68030;51.980;5.646;2023-12-14T03:01:18;9.4;66.5
78696;SHT31;68030;51.980;5.646;2023-12-14T03:03:47;9.4;66.4
78696;SHT31;68030;51.980;5.646;2023-12-14T03:06:16;9.4;66.4
78696;SHT31;68030;51.980;5.646;2023-12-14T03:08:44;9.4;66.4
78696;SHT31;68030;51.980;5.646;2023-12-14T03:11:23;9.4;66.2
78696;SHT31;68030;51.980;5.646;2023-12-14T03:13:52;9.5;66.1
78696;SHT31;68030;51.980;5.646;2023-12-14T03:16:20;9.5;66.3
78696;SHT31;68030;51.980;5.646;2023-12-14T03:18:49;9.5;66.2
78696;SHT31;68030;51.980;5.646;2023-12-14T03:21:19;9.5;66.1
78696;SHT31;68030;51.980;5.646;2023-12-14T03:23:50;9.5;66.0
78696;SHT31;68030;51.980;5.646;2023-12-14T03:26:18;9.5;66.3
78696;SHT31;68030;51.980;5.646;2023-12-14T03:28:47;9.5;65.8
78696;SHT31;68030;51.980;5.646;2023-12-14T03:31:15;9.5;66.2
78696;SHT31;68030;51.980;5.646;2023-12-14T03:33:45;9.5;66.0
78696;SHT31;68030;51.980;5.646;2023-12-14T03:36:16;9.5;65.9
78696;SHT31;68030;51.980;5.646;2023-12-14T03:38:44;9.5;66.0
78696;SHT31;68030;51.980;5.646;2023-12-14T03:41:13;9.5;66.1
78696;SHT31;68030;51.980;5.646;2023-12-14T03:43:42;9.5;65.6
78696;SHT31;68030;51.980;5.646;2023-12-14T03:46:10;9.5;65.8
78696;SHT31;68030;51.980;5.646;2023-12-14T03:48:39;9.5;66.1
78696;SHT31;68030;51.980;5.646;2023-12-14T03:51:08;9.5;66.4
78696;SHT31;68030;51.980;5.646;2023-12-14T03:53:38;9.5;66.2
78696;SHT31;68030;51.980;5.646;2023-12-14T03:56:08;9.5;66.2
78696;SHT31;68030;51.980;5.646;2023-12-14T03:58:37;9.5;66.0
78696;SHT31;68030;51.980;5.646;2023-12-14T04:01:08;9.5;65.8
78696;SHT31;68030;51.980;5.646;2023-12-14T04:03:41;9.5;66.1
78696;SHT31;68030;51.980;5.646;2023-12-14T04:06:10;9.5;66.2
78696;SHT31;68030;51.980;5.646;2023-12-14T04:08:39;9.5;65.7
78696;SHT31;68030;51.980;5.646;2023-12-14T04:11:07;9.5;65.9
78696;SHT31;68030;51.980;5.646;2023-12-14T04:13:38;9.5;66.1
78696;SHT31;68030;51.980;5.646;2023-12-14T04:16:07;9.5;66.0
78696;SHT31;68030;51.980;5.646;2023-12-14T04:18:36;9.5;65.7
78696;SHT31;68030;51.980;5.646;2023-12-14T04:21:09;9.5;65.4
78696;SHT31;68030;51.980;5.646;2023-12-14T04:23:37;9.5;65.3
78696;SHT31;68030;51.980;5.646;2023-12-14T04:26:05;9.5;65.2
78696;SHT31;68030;51.980;5.646;2023-12-14T04:28:36;9.5;65.4
78696;SHT31;68030;51.980;5.646;2023-12-14T04:31:05;9.5;65.4
78696;SHT31;68030;51.980;5.646;2023-12-14T04:33:34;9.5;65.3
78696;SHT31;68030;51.980;5.646;2023-12-14T04:36:03;9.5;65.3
78696;SHT31;68030;51.980;5.646;2023-12-14T04:38:31;9.5;65.6
78696;SHT31;68030;51.980;5.646;2023-12-14T04:41:00;9.5;65.6
78696;SHT31;68030;51.980;5.646;2023-12-14T04:43:29;9.5;65.2
78696;SHT31;68030;51.980;5.646;2023-12-14T04:45:58;9.5;64.8
78696;SHT31;68030;51.980;5.646;2023-12-14T04:48:27;9.5;64.7
78696;SHT31;68030;51.980;5.646;2023-12-14T04:50:55;9.5;64.9
78696;SHT31;68030;51.980;5.646;2023-12-14T04:53:23;9.5;64.8
78696;SHT31;68030;51.980;5.646;2023-12-14T04:55:52;9.5;64.9
78696;SHT31;68030;51.980;5.646;2023-12-14T04:58:20;9.5;64.7
78696;SHT31;68030;51.980;5.646;2023-12-14T05:00:49;9.5;64.7
78696;SHT31;68030;51.980;5.646;2023-12-14T05:03:17;9.5;64.8
78696;SHT31;68030;51.980;5.646;2023-12-14T05:05:46;9.5;64.4
78696;SHT31;68030;51.980;5.646;2023-12-14T05:08:15;9.5;64.3
78696;SHT31;68030;51.980;5.646;2023-12-14T05:10:44;9.5;64.4
78696;SHT31;68030;51.980;5.646;2023-12-14T05:13:12;9.5;64.3
78696;SHT31;68030;51.980;5.646;2023-12-14T05:15:41;9.5;64.3
78696;SHT31;68030;51.980;5.646;2023-12-14T05:18:09;9.5;65.0
78696;SHT31;68030;51.980;5.646;2023-12-14T05:20:38;9.5;64.3
78696;SHT31;68030;51.980;5.646;2023-12-14T05:23:06;9.5;64.5
78696;SHT31;68030;51.980;5.646;2023-12-14T05:25:35;9.5;64.8
78696;SHT31;68030;51.980;5.646;2023-12-14T05:28:03;9.5;64.8
78696;SHT31;68030;51.980;5.646;2023-12-14T05:30:32;9.5;64.7
78696;SHT31;68030;51.980;5.646;2023-12-14T05:33:00;9.5;64.7
78696;SHT31;68030;51.980;5.646;2023-12-14T05:35:30;9.5;64.2
78696;SHT31;68030;51.980;5.646;2023-12-14T05:38:00;9.5;63.8
78696;SHT31;68030;51.980;5.646;2023-12-14T05:40:29;9.5;63.8
78696;SHT31;68030;51.980;5.646;2023-12-14T05:42:58;9.5;63.8
78696;SHT31;68030;51.980;5.646;2023-12-14T05:45:26;9.5;63.9
78696;SHT31;68030;51.980;5.646;2023-12-14T05:47:55;9.5;64.1
78696;SHT31;68030;51.980;5.646;2023-12-14T05:50:23;9.5;64.4
78696;SHT31;68030;51.980;5.646;2023-12-14T05:52:52;9.5;64.3
78696;SHT31;68030;51.980;5.646;2023-12-14T05:55:21;9.5;64.2
78696;SHT31;68030;51.980;5.646;2023-12-14T05:57:50;9.5;64.2
78696;SHT31;68030;51.980;5.646;2023-12-14T06:00:21;9.5;64.5
78696;SHT31;68030;51.980;5.646;2023-12-14T06:02:49;9.5;64.5
78696;SHT31;68030;51.980;5.646;2023-12-14T06:05:17;9.5;64.2
78696;SHT31;68030;51.980;5.646;2023-12-14T06:07:46;9.5;64.3
78696;SHT31;68030;51.980;5.646;2023-12-14T06:10:14;9.5;64.4
78696;SHT31;68030;51.980;5.646;2023-12-14T06:12:43;9.5;64.4
78696;SHT31;68030;51.980;5.646;2023-12-14T06:15:12;9.5;64.7
78696;SHT31;68030;51.980;5.646;2023-12-14T06:17:41;9.6;64.1
78696;SHT31;68030;51.980;5.646;2023-12-14T06:20:11;9.6;63.3
78696;SHT31;68030;51.980;5.646;2023-12-14T06:22:39;9.6;63.0
78696;SHT31;68030;51.980;5.646;2023-12-14T06:25:08;9.5;63.1
78696;SHT31;68030;51.980;5.646;2023-12-14T06:27:37;9.5;63.3
78696;SHT31;68030;51.980;5.646;2023-12-14T06:30:06;9.5;63.8
78696;SHT31;68030;51.980;5.646;2023-12-14T06:32:36;9.5;63.6
78696;SHT31;68030;51.980;5.646;2023-12-14T06:35:05;9.5;63.8
78696;SHT31;68030;51.980;5.646;2023-12-14T06:37:34;9.5;63.2
78696;SHT31;68030;51.980;5.646;2023-12-14T06:40:03;9.5;63.3
78696;SHT31;68030;51.980;5.646;2023-12-14T06:42:32;9.5;63.4
78696;SHT31;68030;51.980;5.646;2023-12-14T06:45:02;9.5;63.3
78696;SHT31;68030;51.980;5.646;2023-12-14T06:47:31;9.5;63.0
78696;SHT31;68030;51.980;5.646;2023-12-14T06:50:00;9.5;62.8
78696;SHT31;68030;51.980;5.646;2023-12-14T06:52:28;9.5;62.5
78696;SHT31;68030;51.980;5.646;2023-12-14T06:54:57;9.5;61.8
78696;SHT31;68030;51.980;5.646;2023-12-14T06:57:25;9.5;61.6
78696;SHT31;68030;51.980;5.646;2023-12-14T06:59:55;9.5;61.7
78696;SHT31;68030;51.980;5.646;2023-12-14T07:02:23;9.5;61.0
78696;SHT31;68030;51.980;5.646;2023-12-14T07:04:52;9.5;60.9
78696;SHT31;68030;51.980;5.646;2023-12-14T07:07:20;9.5;61.0
78696;SHT31;68030;51.980;5.646;2023-12-14T07:09:49;9.5;61.0
78696;SHT31;68030;51.980;5.646;2023-12-14T07:12:17;9.4;61.3
78696;SHT31;68030;51.980;5.646;2023-12-14T07:14:46;9.4;61.7
78696;SHT31;68030;51.980;5.646;2023-12-14T07:17:14;9.4;61.8
78696;SHT31;68030;51.980;5.646;2023-12-14T07:19:43;9.4;62.2
78696;SHT31;68030;51.980;5.646;2023-12-14T07:22:11;9.4;61.8
78696;SHT31;68030;51.980;5.646;2023-12-14T07:24:40;9.4;61.8
78696;SHT31;68030;51.980;5.646;2023-12-14T07:27:09;9.4;61.8
78696;SHT31;68030;51.980;5.646;2023-12-14T07:29:37;9.4;62.2
78696;SHT31;68030;51.980;5.646;2023-12-14T07:32:06;9.4;61.7
78696;SHT31;68030;51.980;5.646;2023-12-14T07:34:35;9.4;61.3
78696;SHT31;68030;51.980;5.646;2023-12-14T07:37:03;9.4;61.2
78696;SHT31;68030;51.980;5.646;2023-12-14T07:39:32;9.4;61.3
78696;SHT31;68030;51.980;5.646;2023-12-14T07:42:00;9.4;61.1
78696;SHT31;68030;51.980;5.646;2023-12-14T07:44:29;9.4;61.1
78696;SHT31;68030;51.980;5.646;2023-12-14T07:46:59;9.4;60.6
78696;SHT31;68030;51.980;5.646;2023-12-14T07:49:28;9.4;60.8
78696;SHT31;68030;51.980;5.646;2023-12-14T07:51:57;9.4;61.2
78696;SHT31;68030;51.980;5.646;2023-12-14T07:54:25;9.4;61.3
78696;SHT31;68030;51.980;5.646;2023-12-14T07:56:57;9.4;60.5
78696;SHT31;68030;51.980;5.646;2023-12-14T07:59:25;9.4;60.7
78696;SHT31;68030;51.980;5.646;2023-12-14T08:01:53;9.4;61.2
78696;SHT31;68030;51.980;5.646;2023-12-14T08:04:22;9.4;61.8
78696;SHT31;68030;51.980;5.646;2023-12-14T08:06:50;9.4;61.2
78696;SHT31;68030;51.980;5.646;2023-12-14T08:09:19;9.4;61.1
78696;SHT31;68030;51.980;5.646;2023-12-14T08:11:48;9.4;60.9
78696;SHT31;68030;51.980;5.646;2023-12-14T08:14:18;9.4;60.9
78696;SHT31;68030;51.980;5.646;2023-12-14T08:16:46;9.4;61.0
78696;SHT31;68030;51.980;5.646;2023-12-14T08:19:15;9.4;60.3
78696;SHT31;68030;51.980;5.646;2023-12-14T08:21:44;9.4;60.4
78696;SHT31;68030;51.980;5.646;2023-12-14T08:24:12;9.4;59.8
78696;SHT31;68030;51.980;5.646;2023-12-14T08:26:41;9.4;59.7
78696;SHT31;68030;51.980;5.646;2023-12-14T08:29:09;9.4;59.9
78696;SHT31;68030;51.980;5.646;2023-12-14T08:31:38;9.4;59.4
78696;SHT31;68030;51.980;5.646;2023-12-14T08:34:06;9.4;58.9
78696;SHT31;68030;51.980;5.646;2023-12-14T08:36:35;9.4;59.2
78696;SHT31;68030;51.980;5.646;2023-12-14T08:39:04;9.4;59.3
78696;SHT31;68030;51.980;5.646;2023-12-14T08:41:33;9.4;59.2
78696;SHT31;68030;51.980;5.646;2023-12-14T08:44:03;9.4;59.0
78696;SHT31;68030;51.980;5.646;2023-12-14T08:46:40;9.4;58.6
78696;SHT31;68030;51.980;5.646;2023-12-14T08:49:10;9.4;58.7
78696;SHT31;68030;51.980;5.646;2023-12-14T08:51:40;9.4;58.2
78696;SHT31;68030;51.980;5.646;2023-12-14T08:54:08;9.3;58.4
78696;SHT31;68030;51.980;5.646;2023-12-14T08:56:39;9.3;58.3
78696;SHT31;68030;51.980;5.646;2023-12-14T08:59:07;9.3;58.7
78696;SHT31;68030;51.980;5.646;2023-12-14T09:01:36;9.3;58.8
78696;SHT31;68030;51.980;5.646;2023-12-14T09:04:04;9.3;59.0
78696;SHT31;68030;51.980;5.646;2023-12-14T09:06:33;9.3;59.0
78696;SHT31;68030;51.980;5.646;2023-12-14T09:09:01;9.3;58.4
78696;SHT31;68030;51.980;5.646;2023-12-14T09:11:30;9.3;59.1
78696;SHT31;68030;51.980;5.646;2023-12-14T09:14:00;9.3;59.0
78696;SHT31;68030;51.980;5.646;2023-12-14T09:16:29;9.3;59.1
78696;SHT31;68030;51.980;5.646;2023-12-14T09:18:58;9.3;59.5
78696;SHT31;68030;51.980;5.646;2023-12-14T09:21:27;9.3;59.0
78696;SHT31;68030;51.980;5.646;2023-12-14T09:23:56;9.3;59.6
78696;SHT31;68030;51.980;5.646;2023-12-14T09:26:24;9.3;59.6
78696;SHT31;68030;51.980;5.646;2023-12-14T09:28:52;9.4;59.7
78696;SHT31;68030;51.980;5.646;2023-12-14T09:31:21;9.4;59.6
78696;SHT31;68030;51.980;5.646;2023-12-14T09:33:49;9.4;59.0
78696;SHT31;68030;51.980;5.646;2023-12-14T09:36:18;9.5;58.8
78696;SHT31;68030;51.980;5.646;2023-12-14T09:38:47;9.5;58.7
78696;SHT31;68030;51.980;5.646;2023-12-14T09:41:15;9.5;59.0
78696;SHT31;68030;51.980;5.646;2023-12-14T09:43:47;9.6;59.0
78696;SHT31;68030;51.980;5.646;2023-12-14T09:46:17;9.6;59.2
78696;SHT31;68030;51.980;5.646;2023-12-14T09:48:50;9.6;58.5
78696;SHT31;68030;51.980;5.646;2023-12-14T09:51:19;9.6;59.0
78696;SHT31;68030;51.980;5.646;2023-12-14T09:53:50;9.6;58.5
78696;SHT31;68030;51.980;5.646;2023-12-14T09:56:24;9.6;58.8
78696;SHT31;68030;51.980;5.646;2023-12-14T09:58:54;9.7;58.8
78696;SHT31;68030;51.980;5.646;2023-12-14T10:01:25;9.7;58.3
78696;SHT31;68030;51.980;5.646;2023-12-14T10:04:07;9.7;58.4
78696;SHT31;68030;51.980;5.646;2023-12-14T10:06:36;9.7;58.1
78696;SHT31;68030;51.980;5.646;2023-12-14T10:09:05;9.7;58.0
78696;SHT31;68030;51.980;5.646;2023-12-14T10:11:36;9.7;57.1
78696;SHT31;68030;51.980;5.646;2023-12-14T10:14:19;9.7;56.8
78696;SHT31;68030;51.980;5.646;2023-12-14T10:16:49;9.6;56.5
78696;SHT31;68030;51.980;5.646;2023-12-14T10:19:19;9.6;57.3
78696;SHT31;68030;51.980;5.646;2023-12-14T10:21:49;9.6;58.0
78696;SHT31;68030;51.980;5.646;2023-12-14T10:24:18;9.6;58.0
78696;SHT31;68030;51.980;5.646;2023-12-14T10:26:47;9.6;57.8
78696;SHT31;68030;51.980;5.646;2023-12-14T10:29:15;9.6;58.0
78696;SHT31;68030;51.980;5.646;2023-12-14T10:31:46;9.6;58.5
78696;SHT31;68030;51.980;5.646;2023-12-14T10:34:15;9.5;58.7
78696;SHT31;68030;51.980;5.646;2023-12-14T10:36:46;9.5;58.7
78696;SHT31;68030;51.980;5.646;2023-12-14T10:39:15;9.5;58.7
78696;SHT31;68030;51.980;5.646;2023-12-14T10:41:47;9.5;58.8
78696;SHT31;68030;51.980;5.646;2023-12-14T10:44:16;9.5;58.5
78696;SHT31;68030;51.980;5.646;2023-12-14T10:46:48;9.5;58.3
78696;SHT31;68030;51.980;5.646;2023-12-14T10:49:18;9.5;58.5
78696;SHT31;68030;51.980;5.646;2023-12-14T10:51:47;9.5;59.0
78696;SHT31;68030;51.980;5.646;2023-12-14T10:54:16;9.4;59.6
78696;SHT31;68030;51.980;5.646;2023-12-14T10:56:46;9.4;58.5
78696;SHT31;68030;51.980;5.646;2023-12-14T10:59:16;9.4;59.0
78696;SHT31;68030;51.980;5.646;2023-12-14T11:01:53;9.4;59.9
78696;SHT31;68030;51.980;5.646;2023-12-14T11:04:27;9.4;59.9
78696;SHT31;68030;51.980;5.646;2023-12-14T11:06:57;9.4;60.5
78696;SHT31;68030;51.980;5.646;2023-12-14T11:09:26;9.5;58.6
78696;SHT31;68030;51.980;5.646;2023-12-14T11:11:58;9.5;58.2
78696;SHT31;68030;51.980;5.646;2023-12-14T11:14:27;9.5;58.5
78696;SHT31;68030;51.980;5.646;2023-12-14T11:16:57;9.5;58.5
78696;SHT31;68030;51.980;5.646;2023-12-14T11:19:31;9.5;58.6
78696;SHT31;68030;51.980;5.646;2023-12-14T11:22:22;9.5;58.6
78696;SHT31;68030;51.980;5.646;2023-12-14T11:24:54;9.5;58.8
78696;SHT31;68030;51.980;5.646;2023-12-14T11:27:30;9.5;58.8
78696;SHT31;68030;51.980;5.646;2023-12-14T11:30:04;9.6;59.1
78696;SHT31;68030;51.980;5.646;2023-12-14T11:32:32;9.6;59.3
78696;SHT31;68030;51.980;5.646;2023-12-14T11:35:01;9.6;58.7
78696;SHT31;68030;51.980;5.646;2023-12-14T11:37:29;9.6;59.3
78696;SHT31;68030;51.980;5.646;2023-12-14T11:40:01;9.6;59.7
78696;SHT31;68030;51.980;5.646;2023-12-14T11:42:34;9.7;59.6
78696;SHT31;68030;51.980;5.646;2023-12-14T11:45:03;9.7;58.8
78696;SHT31;68030;51.980;5.646;2023-12-14T11:47:31;9.7;59.0
78696;SHT31;68030;51.980;5.646;2023-12-14T11:50:00;9.7;59.3
78696;SHT31;68030;51.980;5.646;2023-12-14T11:52:29;9.8;58.5
78696;SHT31;68030;51.980;5.646;2023-12-14T11:54:58;9.8;58.0
78696;SHT31;68030;51.980;5.646;2023-12-14T11:57:30;9.9;58.2
78696;SHT31;68030;51.980;5.646;2023-12-14T12:00:00;9.9;57.6
78696;SHT31;68030;51.980;5.646;2023-12-14T12:02:29;9.9;57.0
78696;SHT31;68030;51.980;5.646;2023-12-14T12:04:58;10.0;57.1
78696;SHT31;68030;51.980;5.646;2023-12-14T12:07:27;10.0;56.4
78696;SHT31;68030;51.980;5.646;2023-12-14T12:09:55;10.0;56.6
78696;SHT31;68030;51.980;5.646;2023-12-14T12:12:24;10.1;57.3
78696;SHT31;68030;51.980;5.646;2023-12-14T12:14:52;10.1;57.1
78696;SHT31;68030;51.980;5.646;2023-12-14T12:17:21;10.1;57.2
78696;SHT31;68030;51.980;5.646;2023-12-14T12:19:49;10.2;57.1
78696;SHT31;68030;51.980;5.646;2023-12-14T12:22:18;10.2;56.7
78696;SHT31;68030;51.980;5.646;2023-12-14T12:24:46;10.3;56.2
78696;SHT31;68030;51.980;5.646;2023-12-14T12:27:17;10.3;55.9
78696;SHT31;68030;51.980;5.646;2023-12-14T12:29:46;10.3;56.2
78696;SHT31;68030;51.980;5.646;2023-12-14T12:32:16;10.3;56.5
78696;SHT31;68030;51.980;5.646;2023-12-14T12:34:44;10.4;56.4
78696;SHT31;68030;51.980;5.646;2023-12-14T12:37:13;10.4;56.0
78696;SHT31;68030;51.980;5.646;2023-12-14T12:39:41;10.4;55.8
78696;SHT31;68030;51.980;5.646;2023-12-14T12:42:10;10.5;56.2
78696;SHT31;68030;51.980;5.646;2023-12-14T12:44:38;10.5;56.2
78696;SHT31;68030;51.980;5.646;2023-12-14T12:47:07;10.5;56.3
78696;SHT31;68030;51.980;5.646;2023-12-14T12:49:35;10.5;56.5
78696;SHT31;68030;51.980;5.646;2023-12-14T12:52:05;10.6;56.4
78696;SHT31;68030;51.980;5.646;2023-12-14T12:54:34;10.6;56.4
78696;SHT31;68030;51.980;5.646;2023-12-14T12:57:02;10.6;55.8
78696;SHT31;68030;51.980;5.646;2023-12-14T12:59:31;10.6;56.0
78696;SHT31;68030;51.980;5.646;2023-12-14T13:02:00;10.6;56.0
78696;SHT31;68030;51.980;5.646;2023-12-14T13:04:29;10.6;55.8
78696;SHT31;68030;51.980;5.646;2023-12-14T13:06:58;10.7;55.3
78696;SHT31;68030;51.980;5.646;2023-12-14T13:09:30;10.7;55.7
78696;SHT31;68030;51.980;5.646;2023-12-14T13:11:59;10.7;56.0
78696;SHT31;68030;51.980;5.646;2023-12-14T13:14:27;10.7;56.7
78696;SHT31;68030;51.980;5.646;2023-12-14T13:16:57;10.7;56.0
78696;SHT31;68030;51.980;5.646;2023-12-14T13:19:26;10.7;56.0
78696;SHT31;68030;51.980;5.646;2023-12-14T13:21:55;10.8;56.1
78696;SHT31;68030;51.980;5.646;2023-12-14T13:24:25;10.8;55.2
78696;SHT31;68030;51.980;5.646;2023-12-14T13:26:54;10.8;55.5
78696;SHT31;68030;51.980;5.646;2023-12-14T13:29:22;10.8;56.1
78696;SHT31;68030;51.980;5.646;2023-12-14T13:31:51;10.8;56.5
78696;SHT31;68030;51.980;5.646;2023-12-14T13:34:19;10.8;56.4
78696;SHT31;68030;51.980;5.646;2023-12-14T13:36:48;10.8;56.8
78696;SHT31;68030;51.980;5.646;2023-12-14T13:39:16;10.8;56.6
78696;SHT31;68030;51.980;5.646;2023-12-14T13:41:46;10.8;56.6
78696;SHT31;68030;51.980;5.646;2023-12-14T13:44:14;10.8;56.6
78696;SHT31;68030;51.980;5.646;2023-12-14T13:46:43;10.8;56.8
78696;SHT31;68030;51.980;5.646;2023-12-14T13:49:12;10.8;57.1
78696;SHT31;68030;51.980;5.646;2023-12-14T13:51:40;10.8;56.7
78696;SHT31;68030;51.980;5.646;2023-12-14T13:54:09;10.8;56.8
78696;SHT31;68030;51.980;5.646;2023-12-14T13:56:38;10.8;57.3
78696;SHT31;68030;51.980;5.646;2023-12-14T13:59:06;10.8;57.1
78696;SHT31;68030;51.980;5.646;2023-12-14T14:01:35;10.8;57.1
78696;SHT31;68030;51.980;5.646;2023-12-14T14:04:04;10.8;57.7
78696;SHT31;68030;51.980;5.646;2023-12-14T14:06:32;10.8;57.6
78696;SHT31;68030;51.980;5.646;2023-12-14T14:09:01;10.8;58.1
78696;SHT31;68030;51.980;5.646;2023-12-14T14:11:30;10.8;57.9
78696;SHT31;68030;51.980;5.646;2023-12-14T14:14:01;10.8;57.7
78696;SHT31;68030;51.980;5.646;2023-12-14T14:16:32;10.8;58.0
78696;SHT31;68030;51.980;5.646;2023-12-14T14:19:00;10.8;57.9
78696;SHT31;68030;51.980;5.646;2023-12-14T14:21:29;10.8;57.9
78696;SHT31;68030;51.980;5.646;2023-12-14T14:23:57;10.8;58.4
78696;SHT31;68030;51.980;5.646;2023-12-14T14:26:26;10.8;58.2
78696;SHT31;68030;51.980;5.646;2023-12-14T14:28:54;10.8;57.6
78696;SHT31;68030;51.980;5.646;2023-12-14T14:31:26;10.8;57.6
78696;SHT31;68030;51.980;5.646;2023-12-14T14:33:58;10.8;57.7
78696;SHT31;68030;51.980;5.646;2023-12-14T14:36:27;10.8;58.0
78696;SHT31;68030;51.980;5.646;2023-12-14T14:38:56;10.8;58.0
78696;SHT31;68030;51.980;5.646;2023-12-14T14:41:25;10.8;58.2
78696;SHT31;68030;51.980;5.646;2023-12-14T14:43:54;10.9;58.3
78696;SHT31;68030;51.980;5.646;2023-12-14T14:46:23;10.9;58.2
78696;SHT31;68030;51.980;5.646;2023-12-14T14:48:52;10.9;58.3
78696;SHT31;68030;51.980;5.646;2023-12-14T14:51:21;10.9;57.6
78696;SHT31;68030;51.980;5.646;2023-12-14T14:53:51;10.9;57.8
78696;SHT31;68030;51.980;5.646;2023-12-14T14:56:20;10.9;58.0
78696;SHT31;68030;51.980;5.646;2023-12-14T14:58:48;10.9;58.2
78696;SHT31;68030;51.980;5.646;2023-12-14T15:01:17;10.9;58.2
78696;SHT31;68030;51.980;5.646;2023-12-14T15:03:46;10.9;58.1
78696;SHT31;68030;51.980;5.646;2023-12-14T15:06:14;10.8;58.1
78696;SHT31;68030;51.980;5.646;2023-12-14T15:08:42;10.8;58.1
78696;SHT31;68030;51.980;5.646;2023-12-14T15:11:11;10.8;58.0
78696;SHT31;68030;51.980;5.646;2023-12-14T15:13:39;10.8;58.1
78696;SHT31;68030;51.980;5.646;2023-12-14T15:16:08;10.8;58.4
78696;SHT31;68030;51.980;5.646;2023-12-14T15:18:39;10.7;58.7
78696;SHT31;68030;51.980;5.646;2023-12-14T15:21:11;10.7;58.5
78696;SHT31;68030;51.980;5.646;2023-12-14T15:23:40;10.7;58.4
78696;SHT31;68030;51.980;5.646;2023-12-14T15:26:10;10.7;59.3
78696;SHT31;68030;51.980;5.646;2023-12-14T15:28:39;10.7;59.3
78696;SHT31;68030;51.980;5.646;2023-12-14T15:31:08;10.6;59.5
78696;SHT31;68030;51.980;5.646;2023-12-14T15:33:38;10.6;59.5
78696;SHT31;68030;51.980;5.646;2023-12-14T15:36:07;10.6;59.6
78696;SHT31;68030;51.980;5.646;2023-12-14T15:38:36;10.6;59.8
78696;SHT31;68030;51.980;5.646;2023-12-14T15:41:07;10.6;60.0
78696;SHT31;68030;51.980;5.646;2023-12-14T15:43:35;10.6;59.4
78696;SHT31;68030;51.980;5.646;2023-12-14T15:46:04;10.6;59.7
78696;SHT31;68030;51.980;5.646;2023-12-14T15:48:32;10.6;60.3
78696;SHT31;68030;51.980;5.646;2023-12-14T15:51:04;10.6;60.3
78696;SHT31;68030;51.980;5.646;2023-12-14T15:53:33;10.6;60.2
78696;SHT31;68030;51.980;5.646;2023-12-14T15:56:05;10.6;60.2
78696;SHT31;68030;51.980;5.646;2023-12-14T15:58:34;10.6;59.8
78696;SHT31;68030;51.980;5.646;2023-12-14T16:01:02;10.6;59.9
78696;SHT31;68030;51.980;5.646;2023-12-14T16:03:31;10.6;59.9
78696;SHT31;68030;51.980;5.646;2023-12-14T16:06:00;10.6;60.2
78696;SHT31;68030;51.980;5.646;2023-12-14T16:08:29;10.6;59.6
78696;SHT31;68030;51.980;5.646;2023-12-14T16:10:57;10.6;59.9
78696;SHT31;68030;51.980;5.646;2023-12-14T16:13:26;10.6;59.7
78696;SHT31;68030;51.980;5.646;2023-12-14T16:15:55;10.6;59.7
78696;SHT31;68030;51.980;5.646;2023-12-14T16:18:23;10.6;59.8
78696;SHT31;68030;51.980;5.646;2023-12-14T16:20:52;10.6;60.1
78696;SHT31;68030;51.980;5.646;2023-12-14T16:23:20;10.6;60.2